createdAt,value
2023-04-07T00:01:50.968Z,45.92
2023-04-07T00:04:17.626Z,44.68
2023-04-07T00:06:44.268Z,45.63
2023-04-07T00:09:11.233Z,45.91
2023-04-07T00:11:37.758Z,45.68
2023-04-07T00:14:04.211Z,45.16
2023-04-07T00:16:30.607Z,46.55
2023-04-07T00:18:56.945Z,44.61
2023-04-07T00:21:23.350Z,44.75
2023-04-07T00:23:49.813Z,45.19
2023-04-07T00:26:16.201Z,45.45
2023-04-07T00:28:42.606Z,44.19
2023-04-07T00:31:09.135Z,46.00
2023-04-07T00:33:35.553Z,46.69
2023-04-07T00:36:02.002Z,46.60
2023-04-07T00:38:28.390Z,46.75
2023-04-07T00:40:59.361Z,45.91
2023-04-07T00:43:26.402Z,46.23
2023-04-07T00:45:53.958Z,48.25
2023-04-07T00:48:21.230Z,47.72
2023-04-07T00:50:47.603Z,46.98
2023-04-07T00:53:13.995Z,44.96
2023-04-07T00:55:40.422Z,45.63
2023-04-07T00:58:06.889Z,47.19
2023-04-07T01:00:38.244Z,46.33
2023-04-07T01:03:11.924Z,46.16
2023-04-07T01:05:53.780Z,45.70
2023-04-07T01:08:43.520Z,44.66
2023-04-07T01:11:30.747Z,47.55
2023-04-07T01:13:58.960Z,47.26
2023-04-07T01:16:32.686Z,47.04
2023-04-07T01:19:09.231Z,46.42
2023-04-07T01:21:37.901Z,46.56
2023-04-07T01:24:37.255Z,45.51
2023-04-07T01:27:49.057Z,46.61
2023-04-07T01:30:16.743Z,46.84
2023-04-07T01:32:46.944Z,45.68
2023-04-07T01:35:13.895Z,47.00
2023-04-07T01:37:41.495Z,48.50
2023-04-07T01:40:08.728Z,48.07
2023-04-07T01:42:36.721Z,47.09
2023-04-07T01:45:04.377Z,48.97
2023-04-07T01:47:32.778Z,48.23
2023-04-07T01:50:01.684Z,48.12
2023-04-07T01:52:29.152Z,47.96
2023-04-07T01:54:57.546Z,48.01
2023-04-07T01:57:24.046Z,47.78
2023-04-07T01:59:50.487Z,48.13
2023-04-07T02:02:17.228Z,48.38
2023-04-07T02:04:55.187Z,46.81
2023-04-07T02:07:31.086Z,47.54
2023-04-07T02:10:00.988Z,48.01
2023-04-07T02:12:29.930Z,48.07
2023-04-07T02:14:57.721Z,48.26
2023-04-07T02:17:26.477Z,48.35
2023-04-07T02:19:54.347Z,47.36
2023-04-07T02:22:21.036Z,46.72
2023-04-07T02:24:47.453Z,49.14
2023-04-07T02:27:14.112Z,49.22
2023-04-07T02:29:40.789Z,48.77
2023-04-07T02:32:08.443Z,47.16
2023-04-07T02:34:34.999Z,47.54
2023-04-07T02:37:01.449Z,47.71
2023-04-07T02:39:27.869Z,47.50
2023-04-07T02:41:54.276Z,46.64
2023-04-07T02:44:20.889Z,46.34
2023-04-07T02:46:47.331Z,47.43
2023-04-07T02:49:13.752Z,48.20
2023-04-07T02:51:40.117Z,48.86
2023-04-07T02:54:06.490Z,48.36
2023-04-07T02:56:33.296Z,48.32
2023-04-07T02:58:59.774Z,46.66
2023-04-07T03:01:26.321Z,48.74
2023-04-07T03:03:53.135Z,47.36
2023-04-07T03:06:19.712Z,48.48
2023-04-07T03:08:46.436Z,48.73
2023-04-07T03:11:12.852Z,49.37
2023-04-07T03:13:39.305Z,49.69
2023-04-07T03:16:05.729Z,50.74
2023-04-07T03:18:32.103Z,51.13
2023-04-07T03:20:58.550Z,50.50
2023-04-07T03:23:25.123Z,51.08
2023-04-07T03:25:51.513Z,50.73
2023-04-07T03:28:17.897Z,50.83
2023-04-07T03:30:44.295Z,50.61
2023-04-07T03:33:11.107Z,50.69
2023-04-07T03:35:37.540Z,50.24
2023-04-07T03:38:03.951Z,51.01
2023-04-07T03:40:30.354Z,50.50
2023-04-07T03:42:56.754Z,50.76
2023-04-07T03:45:23.166Z,50.94
2023-04-07T03:47:49.670Z,50.40
2023-04-07T03:50:16.111Z,51.59
2023-04-07T03:52:42.628Z,51.77
2023-04-07T03:55:09.479Z,51.68
2023-04-07T03:57:35.895Z,52.74
2023-04-07T04:00:02.795Z,52.05
2023-04-07T04:02:29.303Z,53.25
2023-04-07T04:04:56.317Z,53.01
2023-04-07T04:07:22.770Z,52.99
2023-04-07T04:09:49.158Z,54.08
2023-04-07T04:12:15.562Z,53.83
2023-04-07T04:14:41.938Z,54.07
2023-04-07T04:17:08.335Z,53.91
2023-04-07T04:19:34.704Z,51.82
2023-04-07T04:22:01.262Z,51.43
2023-04-07T04:24:27.656Z,51.00
2023-04-07T04:26:54.027Z,50.89
2023-04-07T04:29:20.393Z,50.65
2023-04-07T04:31:46.858Z,49.45
2023-04-07T04:34:13.390Z,51.21
2023-04-07T04:36:41.467Z,51.54
2023-04-07T04:39:07.938Z,52.48
2023-04-07T04:41:34.398Z,52.41
2023-04-07T04:44:01.046Z,53.15
2023-04-07T04:46:27.543Z,53.69
2023-04-07T04:48:54.165Z,53.15
2023-04-07T04:51:20.993Z,51.52
2023-04-07T04:53:47.706Z,51.43
2023-04-07T04:56:14.091Z,54.04
2023-04-07T04:58:42.154Z,53.10
2023-04-07T05:01:08.695Z,50.52
2023-04-07T05:03:35.322Z,49.25
2023-04-07T05:06:01.763Z,48.37
2023-04-07T05:08:28.111Z,48.30
2023-04-07T05:10:55.421Z,48.25
2023-04-07T05:13:21.907Z,49.27
2023-04-07T05:15:48.459Z,50.30
2023-04-07T05:18:14.902Z,51.39
2023-04-07T05:20:41.394Z,52.89
2023-04-07T05:23:07.788Z,53.66
2023-04-07T05:25:34.347Z,52.93
2023-04-07T05:28:00.890Z,51.07
2023-04-07T05:30:27.439Z,51.91
2023-04-07T05:32:54.081Z,51.38
2023-04-07T05:35:20.822Z,51.92
2023-04-07T05:37:47.182Z,53.97
2023-04-07T05:40:13.872Z,54.99
2023-04-07T05:42:40.245Z,53.13
2023-04-07T05:45:07.421Z,52.33
2023-04-07T05:47:34.006Z,52.07
2023-04-07T05:50:00.925Z,51.92
2023-04-07T05:52:27.372Z,52.12
2023-04-07T05:54:53.744Z,49.80
2023-04-07T05:57:20.450Z,48.59
2023-04-07T05:59:47.049Z,53.85
2023-04-07T06:02:13.843Z,55.22
2023-04-07T06:04:40.883Z,54.29
2023-04-07T06:07:07.517Z,56.26
2023-04-07T06:09:33.905Z,56.94
2023-04-07T06:12:04.879Z,54.96
2023-04-07T06:14:31.325Z,54.68
2023-04-07T06:16:57.778Z,53.93
2023-04-07T06:19:24.296Z,53.01
2023-04-07T06:21:50.738Z,54.61
2023-04-07T06:24:17.144Z,52.57
2023-04-07T06:26:44.870Z,55.85
2023-04-07T06:29:11.533Z,54.62
2023-04-07T06:31:37.949Z,54.89
2023-04-07T06:34:04.306Z,54.37
2023-04-07T06:36:30.908Z,53.80
2023-04-07T06:38:57.525Z,52.24
2023-04-07T06:41:24.043Z,53.07
2023-04-07T06:43:53.867Z,52.57
2023-04-07T06:46:20.577Z,52.14
2023-04-07T06:48:47.456Z,52.93
2023-04-07T06:51:13.824Z,53.15
2023-04-07T06:53:41.795Z,53.24
2023-04-07T06:56:10.649Z,50.06
2023-04-07T06:58:37.635Z,49.36
2023-04-07T07:01:05.370Z,48.91
2023-04-07T07:03:32.474Z,50.25
2023-04-07T07:05:59.908Z,49.47
2023-04-07T07:08:27.302Z,48.45
2023-04-07T07:10:54.168Z,48.60
2023-04-07T07:13:23.391Z,48.33
2023-04-07T07:15:50.911Z,47.13
2023-04-07T07:18:18.405Z,48.19
2023-04-07T07:20:45.981Z,47.45
2023-04-07T07:23:12.564Z,46.75
2023-04-07T07:25:38.990Z,46.72
2023-04-07T07:28:05.608Z,46.18
2023-04-07T07:30:32.041Z,46.01
2023-04-07T07:32:58.448Z,47.73
2023-04-07T07:35:25.419Z,45.58
2023-04-07T07:37:52.199Z,45.38
2023-04-07T07:40:18.864Z,45.51
2023-04-07T07:42:46.268Z,44.92
2023-04-07T07:45:13.857Z,44.96
2023-04-07T07:47:41.038Z,44.77
2023-04-07T07:50:07.633Z,44.23
2023-04-07T07:52:34.132Z,44.38
2023-04-07T07:55:00.565Z,44.82
2023-04-07T07:57:26.976Z,44.50
2023-04-07T07:59:53.492Z,44.34
2023-04-07T08:02:20.145Z,44.01
2023-04-07T08:04:46.643Z,42.49
2023-04-07T08:07:13.074Z,41.27
2023-04-07T08:09:39.451Z,42.68
2023-04-07T08:12:06.011Z,43.67
2023-04-07T08:14:32.456Z,41.43
2023-04-07T08:16:58.902Z,42.55
2023-04-07T08:19:25.542Z,42.26
2023-04-07T08:21:51.903Z,43.04
2023-04-07T08:24:18.621Z,43.06
2023-04-07T08:26:45.733Z,42.04
2023-04-07T08:29:12.210Z,39.97
2023-04-07T08:31:38.788Z,41.14
2023-04-07T08:34:05.317Z,40.73
2023-04-07T08:36:32.005Z,40.55
2023-04-07T08:39:00.266Z,41.79
2023-04-07T08:41:38.543Z,41.68
2023-04-07T08:44:06.966Z,41.09
2023-04-07T08:46:34.337Z,41.87
2023-04-07T08:49:01.690Z,42.15
2023-04-07T08:51:32.741Z,41.41
2023-04-07T08:54:11.423Z,40.21
2023-04-07T08:56:40.769Z,40.92
2023-04-07T08:59:08.876Z,40.64
2023-04-07T09:01:36.761Z,40.17
2023-04-07T09:04:04.733Z,40.87
2023-04-07T09:06:32.048Z,40.56
2023-04-07T09:08:59.131Z,40.07
2023-04-07T09:11:27.417Z,39.54
2023-04-07T09:13:55.218Z,39.48
2023-04-07T09:16:21.682Z,39.68
2023-04-07T09:18:48.238Z,39.82
2023-04-07T09:21:15.733Z,38.49
2023-04-07T09:23:42.962Z,38.73
2023-04-07T09:26:18.309Z,38.61
2023-04-07T09:28:47.255Z,40.11
2023-04-07T09:31:14.283Z,39.05
2023-04-07T09:33:40.961Z,39.01
2023-04-07T09:36:07.896Z,39.70
2023-04-07T09:38:36.197Z,39.85
2023-04-07T09:41:21.237Z,39.43
2023-04-07T09:43:48.277Z,40.53
2023-04-07T09:46:16.452Z,40.84
2023-04-07T09:48:44.912Z,39.76
2023-04-07T09:51:16.356Z,39.87
2023-04-07T09:53:51.630Z,40.78
2023-04-07T09:56:24.336Z,41.41
2023-04-07T09:58:54.192Z,41.57
2023-04-07T10:01:21.874Z,41.61
2023-04-07T10:03:50.822Z,41.49
2023-04-07T10:06:17.902Z,40.38
2023-04-07T10:08:44.317Z,39.98
2023-04-07T10:11:10.934Z,41.75
2023-04-07T10:13:39.912Z,39.89
2023-04-07T10:16:07.985Z,39.84
2023-04-07T10:18:36.132Z,40.57
2023-04-07T10:21:04.702Z,40.05
2023-04-07T10:23:48.988Z,39.29
2023-04-07T10:26:19.762Z,39.75
2023-04-07T10:28:51.330Z,41.10
2023-04-07T10:31:18.368Z,40.36
2023-04-07T10:33:50.435Z,40.14
2023-04-07T10:36:18.776Z,40.31
2023-04-07T10:39:07.936Z,41.32
2023-04-07T10:41:41.771Z,40.04
2023-04-07T10:44:43.227Z,39.74
2023-04-07T10:47:09.632Z,39.71
2023-04-07T10:49:36.584Z,40.93
2023-04-07T10:52:12.123Z,40.74
2023-04-07T10:54:41.601Z,40.65
2023-04-07T10:57:13.951Z,41.20
2023-04-07T11:00:01.700Z,39.65
2023-04-07T11:02:28.252Z,39.15
2023-04-07T11:04:54.905Z,39.28
2023-04-07T11:07:45.421Z,39.93
2023-04-07T11:10:13.269Z,39.07
2023-04-07T11:12:39.761Z,40.83
2023-04-07T11:15:22.754Z,41.50
2023-04-07T11:18:08.299Z,40.41
2023-04-07T11:20:43.832Z,40.36
2023-04-07T11:23:12.147Z,39.81
2023-04-07T11:25:38.909Z,40.48
2023-04-07T11:28:05.663Z,39.74
2023-04-07T11:30:32.303Z,40.13
2023-04-07T11:32:59.148Z,39.59
2023-04-07T11:35:25.628Z,39.49
2023-04-07T11:37:58.601Z,39.67
2023-04-07T11:40:36.856Z,39.42
2023-04-07T11:43:15.253Z,38.98
2023-04-07T11:45:41.692Z,39.81
2023-04-07T11:48:30.631Z,38.62
2023-04-07T11:50:57.473Z,38.53
2023-04-07T11:53:30.642Z,38.12
2023-04-07T11:56:03.830Z,36.42
2023-04-07T11:58:30.436Z,37.09
2023-04-07T12:01:05.797Z,36.78
2023-04-07T12:03:34.134Z,36.79
2023-04-07T12:06:02.016Z,38.50
2023-04-07T12:08:40.197Z,38.33
2023-04-07T12:11:07.889Z,38.24
2023-04-07T12:13:35.292Z,37.92
2023-04-07T12:16:01.901Z,37.59
2023-04-07T12:18:28.805Z,37.01
2023-04-07T12:20:55.860Z,36.44
2023-04-07T12:23:22.699Z,36.13
2023-04-07T12:25:49.156Z,36.71
2023-04-07T12:28:15.604Z,37.46
2023-04-07T12:30:42.264Z,36.56
2023-04-07T12:33:08.669Z,36.60
2023-04-07T12:35:35.353Z,36.82
2023-04-07T12:38:02.905Z,36.55
2023-04-07T12:40:29.591Z,36.75
2023-04-07T12:42:58.249Z,35.74
2023-04-07T12:45:24.824Z,35.35
2023-04-07T12:47:51.596Z,36.17
2023-04-07T12:50:18.590Z,35.72
2023-04-07T12:52:44.968Z,36.34
2023-04-07T12:55:11.588Z,35.98
2023-04-07T12:57:38.632Z,35.79
2023-04-07T13:00:05.918Z,36.24
2023-04-07T13:02:32.719Z,36.26
2023-04-07T13:04:59.188Z,36.69
2023-04-07T13:07:25.632Z,36.22
2023-04-07T13:09:52.031Z,36.53
2023-04-07T13:12:18.455Z,36.87
2023-04-07T13:14:56.997Z,36.55
2023-04-07T13:17:25.992Z,36.62
2023-04-07T13:19:52.565Z,36.94
2023-04-07T13:22:22.176Z,37.17
2023-04-07T13:24:50.766Z,36.55
2023-04-07T13:27:17.128Z,36.69
2023-04-07T13:29:43.554Z,36.45
2023-04-07T13:32:12.982Z,36.76
2023-04-07T13:34:39.888Z,37.53
2023-04-07T13:37:06.487Z,36.40
2023-04-07T13:39:33.320Z,36.43
2023-04-07T13:41:59.977Z,35.85
2023-04-07T13:44:28.051Z,35.74
2023-04-07T13:46:56.629Z,35.54
2023-04-07T13:49:23.256Z,36.87
2023-04-07T13:51:49.642Z,36.82
2023-04-07T13:54:18.859Z,36.56
2023-04-07T13:56:45.322Z,35.34
2023-04-07T13:59:11.960Z,35.86
2023-04-07T14:01:39.382Z,36.87
2023-04-07T14:04:07.723Z,36.28
2023-04-07T14:06:36.306Z,36.35
2023-04-07T14:09:03.676Z,36.39
2023-04-07T14:11:30.399Z,35.41
2023-04-07T14:13:57.212Z,36.69
2023-04-07T14:16:24.940Z,36.03
2023-04-07T14:18:51.531Z,36.06
2023-04-07T14:21:17.937Z,36.55
2023-04-07T14:23:44.372Z,36.28
2023-04-07T14:26:11.740Z,37.12
2023-04-07T14:28:38.183Z,37.12
2023-04-07T14:31:04.758Z,36.99
2023-04-07T14:33:31.280Z,37.01
2023-04-07T14:35:57.855Z,37.62
2023-04-07T14:38:25.782Z,36.47
2023-04-07T14:40:52.956Z,35.51
2023-04-07T14:43:19.502Z,35.16
2023-04-07T14:45:46.006Z,36.14
2023-04-07T14:48:13.428Z,37.18
2023-04-07T14:50:40.350Z,36.06
2023-04-07T14:53:06.849Z,35.84
2023-04-07T14:55:33.676Z,36.48
2023-04-07T14:58:00.070Z,35.08
2023-04-07T15:00:27.341Z,34.71
2023-04-07T15:02:54.835Z,36.13
2023-04-07T15:05:25.967Z,35.74
2023-04-07T15:07:52.509Z,34.78
2023-04-07T15:10:19.045Z,35.75
2023-04-07T15:12:51.594Z,36.19
2023-04-07T15:15:18.535Z,35.75
2023-04-07T15:17:45.460Z,35.65
2023-04-07T15:20:12.987Z,35.07
2023-04-07T15:22:40.131Z,34.96
2023-04-07T15:25:06.868Z,35.20
2023-04-07T15:27:33.315Z,35.21
2023-04-07T15:29:59.804Z,35.15
2023-04-07T15:32:26.290Z,36.07
2023-04-07T15:34:52.830Z,35.73
2023-04-07T15:37:19.350Z,35.07
2023-04-07T15:39:45.834Z,36.41
2023-04-07T15:42:12.777Z,37.85
2023-04-07T15:44:39.820Z,37.39
2023-04-07T15:47:07.172Z,36.23
2023-04-07T15:49:34.422Z,35.71
2023-04-07T15:52:03.377Z,38.37
2023-04-07T15:54:30.573Z,39.53
2023-04-07T15:56:57.030Z,39.24
2023-04-07T15:59:23.425Z,38.83
2023-04-07T16:01:50.401Z,39.16
2023-04-07T16:04:17.056Z,37.96
2023-04-07T16:06:43.534Z,36.73
2023-04-07T16:09:10.173Z,36.77
2023-04-07T16:11:36.574Z,37.34
2023-04-07T16:14:02.969Z,37.30
2023-04-07T16:16:31.858Z,38.09
2023-04-07T16:18:58.318Z,37.29
2023-04-07T16:21:24.771Z,37.51
2023-04-07T16:23:51.134Z,37.59
2023-04-07T16:26:17.689Z,38.02
2023-04-07T16:28:44.259Z,37.85
2023-04-07T16:31:12.272Z,37.50
2023-04-07T16:33:39.238Z,37.39
2023-04-07T16:36:08.477Z,38.01
2023-04-07T16:38:34.978Z,37.70
2023-04-07T16:41:04.360Z,37.96
2023-04-07T16:43:31.277Z,38.23
2023-04-07T16:45:59.925Z,37.68
2023-04-07T16:48:26.602Z,39.70
2023-04-07T16:50:53.041Z,40.69
2023-04-07T16:53:21.282Z,39.05
2023-04-07T16:55:48.141Z,39.46
2023-04-07T16:58:18.736Z,39.62
2023-04-07T17:00:45.756Z,39.26
2023-04-07T17:03:14.921Z,39.82
2023-04-07T17:05:41.740Z,39.65
2023-04-07T17:08:08.108Z,39.81
2023-04-07T17:10:34.501Z,40.17
2023-04-07T17:13:00.947Z,40.60
2023-04-07T17:15:27.377Z,44.17
2023-04-07T17:17:53.875Z,46.36
2023-04-07T17:20:20.343Z,47.44
2023-04-07T17:22:48.852Z,48.96
2023-04-07T17:25:17.770Z,49.41
2023-04-07T17:27:46.319Z,50.46
2023-04-07T17:30:13.110Z,51.06
2023-04-07T17:32:39.686Z,51.87
2023-04-07T17:35:06.532Z,53.29
2023-04-07T17:37:32.994Z,54.49
2023-04-07T17:40:01.118Z,53.37
2023-04-07T17:42:27.511Z,55.27
2023-04-07T17:44:54.022Z,55.93
2023-04-07T17:47:20.477Z,56.19
2023-04-07T17:49:46.984Z,54.78
2023-04-07T17:52:14.132Z,53.78
2023-04-07T17:54:40.492Z,55.59
2023-04-07T17:57:07.069Z,55.90
2023-04-07T17:59:33.492Z,55.60
2023-04-07T18:01:59.948Z,56.08
2023-04-07T18:06:52.714Z,59.04
2023-04-07T18:09:19.080Z,58.92
2023-04-07T18:11:45.455Z,59.37
2023-04-07T18:14:11.834Z,59.15
2023-04-07T18:16:38.350Z,59.63
2023-04-07T18:19:04.984Z,59.38
2023-04-07T18:21:31.499Z,58.91
2023-04-07T18:23:57.922Z,60.59
2023-04-07T18:26:24.326Z,59.09
2023-04-07T18:28:50.703Z,58.69
2023-04-07T18:31:17.415Z,59.97
2023-04-07T18:33:43.963Z,60.68
2023-04-07T18:36:11.719Z,60.65
2023-04-07T18:38:38.244Z,58.48
2023-04-07T18:41:06.660Z,59.13
2023-04-07T18:43:33.152Z,59.32
2023-04-07T18:45:59.543Z,58.90
2023-04-07T18:48:26.309Z,60.34
2023-04-07T18:50:54.637Z,61.46
2023-04-07T18:53:22.201Z,62.06
2023-04-07T18:55:49.559Z,62.82
2023-04-07T18:58:16.753Z,62.73
2023-04-07T19:00:44.855Z,63.53
2023-04-07T19:03:12.113Z,63.56
2023-04-07T19:05:41.888Z,64.09
2023-04-07T19:08:09.900Z,64.20
2023-04-07T19:10:37.027Z,64.32
2023-04-07T19:13:04.086Z,64.18
2023-04-07T19:15:38.502Z,64.56
2023-04-07T19:18:06.167Z,64.35
2023-04-07T19:20:33.986Z,63.73
2023-04-07T19:23:11.169Z,63.12
2023-04-07T19:25:40.201Z,62.95
2023-04-07T19:28:07.611Z,64.43
2023-04-07T19:30:38.365Z,64.65
2023-04-07T19:33:09.675Z,64.90
2023-04-07T19:35:45.365Z,65.12
2023-04-07T19:38:12.719Z,65.30
2023-04-07T19:40:44.644Z,65.88
2023-04-07T19:43:11.929Z,65.39
2023-04-07T19:45:38.784Z,66.00
2023-04-07T19:48:06.639Z,66.70
2023-04-07T19:50:40.613Z,67.66
2023-04-07T19:53:08.046Z,67.47
2023-04-07T19:55:36.441Z,66.87
2023-04-07T19:58:03.732Z,67.34
2023-04-07T20:00:31.640Z,67.06
2023-04-07T20:03:00.473Z,66.78
2023-04-07T20:05:27.909Z,66.43
2023-04-07T20:07:55.573Z,67.35
2023-04-07T20:10:22.770Z,66.50
2023-04-07T20:12:51.083Z,65.48
2023-04-07T20:15:18.753Z,66.87
2023-04-07T20:17:48.058Z,65.85
2023-04-07T20:20:15.810Z,64.98
2023-04-07T20:22:42.206Z,64.58
2023-04-07T20:25:09.388Z,67.10
2023-04-07T20:27:35.917Z,66.74
2023-04-07T20:30:02.828Z,66.34
2023-04-07T20:32:29.256Z,66.13
2023-04-07T20:34:55.685Z,65.21
2023-04-07T20:37:22.927Z,63.54
2023-04-07T20:39:49.320Z,63.28
2023-04-07T20:42:16.045Z,64.15
2023-04-07T20:44:42.718Z,64.59
2023-04-07T20:47:10.239Z,65.43
2023-04-07T20:49:39.331Z,65.98
2023-04-07T20:52:06.803Z,65.51
2023-04-07T20:54:34.619Z,65.38
2023-04-07T20:57:01.766Z,65.79
2023-04-07T20:59:28.808Z,66.39
2023-04-07T21:01:55.469Z,67.47
2023-04-07T21:04:24.508Z,68.31
2023-04-07T21:06:51.619Z,67.48
2023-04-07T21:09:18.108Z,66.90
2023-04-07T21:11:44.466Z,66.18
2023-04-07T21:14:11.467Z,65.36
2023-04-07T21:16:37.879Z,65.44
2023-04-07T21:19:04.255Z,65.44
2023-04-07T21:21:31.570Z,65.75
2023-04-07T21:23:58.017Z,66.55
2023-04-07T21:26:24.518Z,65.10
2023-04-07T21:28:51.849Z,64.78
2023-04-07T21:31:25.000Z,66.52
2023-04-07T21:33:52.682Z,66.50
2023-04-07T21:36:19.333Z,66.95
2023-04-07T21:38:45.797Z,67.46
2023-04-07T21:41:12.172Z,67.53
2023-04-07T21:43:38.587Z,67.68
2023-04-07T21:46:05.128Z,67.89
2023-04-07T21:48:32.337Z,67.74
2023-04-07T21:50:58.710Z,66.42
2023-04-07T21:53:25.071Z,66.13
2023-04-07T21:55:52.632Z,67.75
2023-04-07T21:58:19.181Z,68.70
2023-04-07T22:00:48.652Z,67.92
2023-04-07T22:03:16.641Z,68.15
2023-04-07T22:05:43.292Z,67.62
2023-04-07T22:08:09.669Z,67.44
2023-04-07T22:10:36.375Z,66.30
2023-04-07T22:13:02.823Z,65.96
2023-04-07T22:15:29.303Z,66.39
2023-04-07T22:17:58.681Z,67.67
2023-04-07T22:20:25.876Z,67.56
2023-04-07T22:22:54.051Z,67.58
2023-04-07T22:25:20.511Z,67.11
2023-04-07T22:27:46.965Z,67.57
2023-04-07T22:30:13.365Z,67.36
2023-04-07T22:32:41.387Z,68.82
2023-04-07T22:35:08.194Z,68.92
2023-04-07T22:37:34.600Z,69.07
2023-04-07T22:40:01.072Z,69.52
2023-04-07T22:42:27.619Z,69.72
2023-04-07T22:44:54.047Z,69.71
2023-04-07T22:47:22.153Z,69.88
2023-04-07T22:49:48.621Z,70.07
2023-04-07T22:52:15.078Z,70.60
2023-04-07T22:54:41.442Z,70.95
2023-04-07T22:57:07.865Z,70.75
2023-04-07T22:59:34.280Z,71.22
2023-04-07T23:02:00.762Z,71.07
2023-04-07T23:04:27.278Z,71.54
2023-04-07T23:06:53.788Z,71.23
2023-04-07T23:09:20.220Z,71.57
2023-04-07T23:11:47.257Z,71.34
2023-04-07T23:14:13.893Z,71.06
2023-04-07T23:16:40.420Z,71.73
2023-04-07T23:19:07.579Z,72.22
2023-04-07T23:21:33.939Z,72.59
2023-04-07T23:24:00.577Z,72.48
2023-04-07T23:26:27.041Z,72.92
2023-04-07T23:28:53.438Z,73.10
2023-04-07T23:31:19.885Z,72.59
2023-04-07T23:33:47.536Z,72.93
2023-04-07T23:36:13.917Z,73.51
2023-04-07T23:38:40.701Z,72.14
2023-04-07T23:41:07.801Z,71.87
2023-04-07T23:43:34.321Z,72.22
2023-04-07T23:46:00.738Z,72.63
2023-04-07T23:48:27.230Z,70.59
2023-04-07T23:50:54.004Z,70.12
2023-04-07T23:53:20.382Z,70.47
2023-04-07T23:55:48.308Z,71.88
2023-04-07T23:58:14.714Z,72.39
